sensor_id;sensor_type;location;lat;lon;timestamp;pressure;altitude;pressure_sealevel;temperature;humidity
14790;BME280;7486;51.010;10.366;2022-08-04T00:00:09;98114.75;;;19.04;54.95
14790;BME280;7486;51.010;10.366;2022-08-04T00:08:06;98177.47;;;19.40;55.15
14790;BME280;7486;51.010;10.366;2022-08-04T00:10:38;98169.09;;;19.27;55.40
14790;BME280;7486;51.010;10.366;2022-08-04T00:13:07;98120.91;;;18.95;55.59
14790;BME280;7486;51.010;10.366;2022-08-04T00:15:34;98164.44;;;19.12;56.11
14790;BME280;7486;51.010;10.366;2022-08-04T00:18:08;98173.38;;;19.17;56.34
14790;BME280;7486;51.010;10.366;2022-08-04T00:20:38;98136.94;;;18.85;56.28
14790;BME280;7486;51.010;10.366;2022-08-04T00:23:05;98154.16;;;18.89;56.42
14790;BME280;7486;51.010;10.366;2022-08-04T00:25:32;98097.09;;;18.51;56.61
14790;BME280;7486;51.010;10.366;2022-08-04T00:28:00;98182.38;;;19.01;56.47
14790;BME280;7486;51.010;10.366;2022-08-04T00:30:27;98141.50;;;18.79;56.53
14790;BME280;7486;51.010;10.366;2022-08-04T00:32:55;98124.53;;;18.68;56.40
14790;BME280;7486;51.010;10.366;2022-08-04T00:35:23;98144.94;;;18.69;56.35
14790;BME280;7486;51.010;10.366;2022-08-04T00:37:50;98141.69;;;18.67;55.92
14790;BME280;7486;51.010;10.366;2022-08-04T00:40:31;98184.50;;;18.89;55.80
14790;BME280;7486;51.010;10.366;2022-08-04T00:43:18;98190.09;;;18.83;55.58
14790;BME280;7486;51.010;10.366;2022-08-04T01:05:30;98182.94;;;18.56;55.36
14790;BME280;7486;51.010;10.366;2022-08-04T01:11:11;98124.66;;;18.10;55.72
14790;BME280;7486;51.010;10.366;2022-08-04T01:16:09;98184.38;;;18.37;56.28
14790;BME280;7486;51.010;10.366;2022-08-04T01:24:29;98180.78;;;18.21;57.38
14790;BME280;7486;51.010;10.366;2022-08-04T01:27:05;98173.50;;;18.17;56.76
14790;BME280;7486;51.010;10.366;2022-08-04T01:29:56;98134.41;;;17.89;57.29
14790;BME280;7486;51.010;10.366;2022-08-04T01:32:31;98178.56;;;18.13;57.16
14790;BME280;7486;51.010;10.366;2022-08-04T01:35:12;98135.75;;;17.87;57.46
14790;BME280;7486;51.010;10.366;2022-08-04T01:38:01;98172.91;;;18.10;57.82
14790;BME280;7486;51.010;10.366;2022-08-04T01:40:52;98115.72;;;17.67;57.99
14790;BME280;7486;51.010;10.366;2022-08-04T01:43:20;98129.69;;;17.69;58.38
14790;BME280;7486;51.010;10.366;2022-08-04T01:45:55;98167.91;;;17.87;58.51
14790;BME280;7486;51.010;10.366;2022-08-04T01:48:24;98171.41;;;17.92;58.16
14790;BME280;7486;51.010;10.366;2022-08-04T01:50:52;98169.00;;;17.91;58.24
14790;BME280;7486;51.010;10.366;2022-08-04T01:53:20;98157.28;;;17.70;58.54
14790;BME280;7486;51.010;10.366;2022-08-04T01:55:48;98121.38;;;17.44;58.57
14790;BME280;7486;51.010;10.366;2022-08-04T01:58:22;98114.91;;;17.40;59.06
14790;BME280;7486;51.010;10.366;2022-08-04T02:00:58;98140.41;;;17.48;59.39
14790;BME280;7486;51.010;10.366;2022-08-04T02:03:27;98184.38;;;17.73;59.35
14790;BME280;7486;51.010;10.366;2022-08-04T02:11:29;98186.44;;;17.66;59.69
14790;BME280;7486;51.010;10.366;2022-08-04T02:16:48;98104.75;;;17.15;60.07
14790;BME280;7486;51.010;10.366;2022-08-04T02:22:17;98081.41;;;16.89;59.87
14790;BME280;7486;51.010;10.366;2022-08-04T02:24:46;98161.75;;;17.38;60.01
14790;BME280;7486;51.010;10.366;2022-08-04T02:27:15;98146.31;;;17.23;60.10
14790;BME280;7486;51.010;10.366;2022-08-04T02:29:50;98134.19;;;17.15;60.11
14790;BME280;7486;51.010;10.366;2022-08-04T02:32:24;98181.53;;;17.37;60.86
14790;BME280;7486;51.010;10.366;2022-08-04T02:35:06;98077.25;;;16.77;60.72
14790;BME280;7486;51.010;10.366;2022-08-04T02:37:34;98004.44;;;16.26;60.42
14790;BME280;7486;51.010;10.366;2022-08-04T02:40:04;98083.59;;;16.70;60.75
14790;BME280;7486;51.010;10.366;2022-08-04T02:42:32;98166.34;;;17.20;60.68
14790;BME280;7486;51.010;10.366;2022-08-04T02:44:59;98158.41;;;17.04;61.03
14790;BME280;7486;51.010;10.366;2022-08-04T02:47:27;98128.44;;;16.85;61.09
14790;BME280;7486;51.010;10.366;2022-08-04T02:50:17;98166.00;;;17.12;61.29
14790;BME280;7486;51.010;10.366;2022-08-04T02:52:57;98097.47;;;16.67;61.16
14790;BME280;7486;51.010;10.366;2022-08-04T02:55:28;98093.97;;;16.67;60.77
14790;BME280;7486;51.010;10.366;2022-08-04T02:57:57;98098.88;;;16.75;60.53
14790;BME280;7486;51.010;10.366;2022-08-04T03:00:24;98073.28;;;16.57;60.45
14790;BME280;7486;51.010;10.366;2022-08-04T03:14:32;98085.38;;;16.43;61.95
14790;BME280;7486;51.010;10.366;2022-08-04T03:18:05;98150.50;;;16.75;62.06
14790;BME280;7486;51.010;10.366;2022-08-04T03:29:46;98155.81;;;16.70;62.19
14790;BME280;7486;51.010;10.366;2022-08-04T03:54:58;98148.28;;;16.51;63.22
14790;BME280;7486;51.010;10.366;2022-08-04T04:00:17;98150.34;;;16.44;63.39
14790;BME280;7486;51.010;10.366;2022-08-04T04:03:21;98154.63;;;16.45;63.38
14790;BME280;7486;51.010;10.366;2022-08-04T04:06:40;98153.50;;;16.41;63.65
14790;BME280;7486;51.010;10.366;2022-08-04T04:23:32;98152.41;;;16.97;61.50
14790;BME280;7486;51.010;10.366;2022-08-04T04:32:34;98165.81;;;17.18;60.34
14790;BME280;7486;51.010;10.366;2022-08-04T04:35:10;98162.19;;;17.08;61.30
14790;BME280;7486;51.010;10.366;2022-08-04T04:43:43;98164.19;;;17.17;61.32
14790;BME280;7486;51.010;10.366;2022-08-04T04:47:21;98159.06;;;17.38;61.37
14790;BME280;7486;51.010;10.366;2022-08-04T04:49:33;98163.06;;;17.35;61.72
14790;BME280;7486;51.010;10.366;2022-08-04T04:52:25;98159.97;;;17.70;60.70
14790;BME280;7486;51.010;10.366;2022-08-04T04:55:15;98151.38;;;17.68;59.75
14790;BME280;7486;51.010;10.366;2022-08-04T04:57:44;98118.88;;;17.33;61.48
14790;BME280;7486;51.010;10.366;2022-08-04T05:00:23;98124.38;;;17.26;62.74
14790;BME280;7486;51.010;10.366;2022-08-04T05:11:45;98163.13;;;17.94;61.69
14790;BME280;7486;51.010;10.366;2022-08-04T05:14:30;98112.38;;;17.82;61.50
14790;BME280;7486;51.010;10.366;2022-08-04T05:17:29;98124.91;;;18.08;60.53
14790;BME280;7486;51.010;10.366;2022-08-04T05:25:27;98121.03;;;18.26;60.93
14790;BME280;7486;51.010;10.366;2022-08-04T05:28:09;98138.56;;;18.86;60.30
14790;BME280;7486;51.010;10.366;2022-08-04T05:30:40;98117.41;;;18.94;60.58
14790;BME280;7486;51.010;10.366;2022-08-04T05:33:10;98153.84;;;19.37;60.91
14790;BME280;7486;51.010;10.366;2022-08-04T05:35:47;98110.59;;;19.49;58.86
14790;BME280;7486;51.010;10.366;2022-08-04T05:38:37;98119.28;;;19.91;56.40
14790;BME280;7486;51.010;10.366;2022-08-04T05:41:07;98135.38;;;20.32;55.11
14790;BME280;7486;51.010;10.366;2022-08-04T05:43:36;98132.69;;;20.57;55.14
14790;BME280;7486;51.010;10.366;2022-08-04T05:46:03;98098.03;;;19.95;57.79
14790;BME280;7486;51.010;10.366;2022-08-04T05:48:31;98151.00;;;19.94;57.87
14790;BME280;7486;51.010;10.366;2022-08-04T05:51:00;98142.41;;;19.92;58.38
14790;BME280;7486;51.010;10.366;2022-08-04T05:53:29;98109.84;;;19.68;59.48
14790;BME280;7486;51.010;10.366;2022-08-04T05:55:57;98169.03;;;19.99;57.62
14790;BME280;7486;51.010;10.366;2022-08-04T05:58:28;98130.78;;;20.42;56.45
14790;BME280;7486;51.010;10.366;2022-08-04T06:00:56;98096.81;;;20.77;53.44
14790;BME280;7486;51.010;10.366;2022-08-04T06:03:24;98069.91;;;20.82;53.79
14790;BME280;7486;51.010;10.366;2022-08-04T06:05:53;98078.44;;;20.99;52.35
14790;BME280;7486;51.010;10.366;2022-08-04T06:08:20;98089.25;;;20.89;53.55
14790;BME280;7486;51.010;10.366;2022-08-04T06:10:47;98074.06;;;21.13;52.52
14790;BME280;7486;51.010;10.366;2022-08-04T06:13:19;98161.22;;;21.37;55.39
14790;BME280;7486;51.010;10.366;2022-08-04T06:16:07;98073.94;;;20.84;55.54
14790;BME280;7486;51.010;10.366;2022-08-04T06:18:55;98132.81;;;21.06;54.89
14790;BME280;7486;51.010;10.366;2022-08-04T06:21:46;98153.16;;;21.32;54.59
14790;BME280;7486;51.010;10.366;2022-08-04T06:24:17;98097.72;;;21.21;53.60
14790;BME280;7486;51.010;10.366;2022-08-04T06:26:46;98070.16;;;21.39;51.31
14790;BME280;7486;51.010;10.366;2022-08-04T06:29:17;98117.72;;;21.98;50.47
14790;BME280;7486;51.010;10.366;2022-08-04T06:31:44;98059.16;;;21.69;50.49
14790;BME280;7486;51.010;10.366;2022-08-04T06:34:33;98096.50;;;21.86;52.51
14790;BME280;7486;51.010;10.366;2022-08-04T06:37:01;98157.25;;;22.41;50.92
14790;BME280;7486;51.010;10.366;2022-08-04T06:39:29;98106.66;;;22.28;50.12
14790;BME280;7486;51.010;10.366;2022-08-04T06:42:00;98127.94;;;22.63;49.87
14790;BME280;7486;51.010;10.366;2022-08-04T06:44:49;98150.81;;;23.37;46.87
14790;BME280;7486;51.010;10.366;2022-08-04T06:47:18;98152.75;;;23.55;46.25
14790;BME280;7486;51.010;10.366;2022-08-04T06:49:48;98145.50;;;23.32;47.34
14790;BME280;7486;51.010;10.366;2022-08-04T06:52:36;98073.94;;;23.06;46.65
14790;BME280;7486;51.010;10.366;2022-08-04T06:55:04;98107.78;;;23.22;48.62
14790;BME280;7486;51.010;10.366;2022-08-04T06:57:33;98149.09;;;23.65;47.80
14790;BME280;7486;51.010;10.366;2022-08-04T07:00:05;98146.25;;;23.94;49.05
14790;BME280;7486;51.010;10.366;2022-08-04T07:02:40;98099.03;;;23.49;48.93
14790;BME280;7486;51.010;10.366;2022-08-04T07:05:09;98079.97;;;23.22;48.50
14790;BME280;7486;51.010;10.366;2022-08-04T07:07:36;97998.53;;;22.91;48.20
14790;BME280;7486;51.010;10.366;2022-08-04T07:10:27;97966.31;;;22.76;47.79
14790;BME280;7486;51.010;10.366;2022-08-04T07:12:55;98133.31;;;24.23;42.29
14790;BME280;7486;51.010;10.366;2022-08-04T07:15:23;98143.09;;;24.19;44.47
14790;BME280;7486;51.010;10.366;2022-08-04T07:17:51;97990.16;;;23.43;44.52
14790;BME280;7486;51.010;10.366;2022-08-04T07:20:19;98113.00;;;24.39;45.67
14790;BME280;7486;51.010;10.366;2022-08-04T07:23:05;98081.88;;;24.23;44.96
14790;BME280;7486;51.010;10.366;2022-08-04T07:25:33;98144.69;;;24.85;45.48
14790;BME280;7486;51.010;10.366;2022-08-04T07:28:22;98143.25;;;25.14;45.05
14790;BME280;7486;51.010;10.366;2022-08-04T07:30:49;98147.69;;;25.24;43.14
14790;BME280;7486;51.010;10.366;2022-08-04T07:33:19;98038.41;;;24.74;44.30
14790;BME280;7486;51.010;10.366;2022-08-04T07:35:49;98144.47;;;25.72;41.60
14790;BME280;7486;51.010;10.366;2022-08-04T07:38:38;98076.97;;;25.48;41.07
14790;BME280;7486;51.010;10.366;2022-08-04T07:41:22;98132.81;;;26.38;38.28
14790;BME280;7486;51.010;10.366;2022-08-04T07:44:06;97951.09;;;24.91;41.88
14790;BME280;7486;51.010;10.366;2022-08-04T07:46:33;98064.94;;;25.85;38.49
14790;BME280;7486;51.010;10.366;2022-08-04T07:49:00;98067.56;;;26.21;37.21
14790;BME280;7486;51.010;10.366;2022-08-04T07:51:28;98108.03;;;26.61;37.81
14790;BME280;7486;51.010;10.366;2022-08-04T07:53:56;98116.88;;;26.76;37.91
14790;BME280;7486;51.010;10.366;2022-08-04T07:56:25;98123.66;;;26.87;37.46
14790;BME280;7486;51.010;10.366;2022-08-04T07:58:52;98034.59;;;26.44;36.14
14790;BME280;7486;51.010;10.366;2022-08-04T08:01:18;98008.88;;;26.33;35.52
14790;BME280;7486;51.010;10.366;2022-08-04T08:03:46;98045.09;;;26.29;38.62
14790;BME280;7486;51.010;10.366;2022-08-04T08:06:14;98052.66;;;26.80;37.46
14790;BME280;7486;51.010;10.366;2022-08-04T08:08:59;97911.59;;;26.35;36.50
14790;BME280;7486;51.010;10.366;2022-08-04T08:11:37;97807.66;;;25.78;37.48
14790;BME280;7486;51.010;10.366;2022-08-04T08:14:25;98122.09;;;27.77;36.59
14790;BME280;7486;51.010;10.366;2022-08-04T08:16:52;98077.91;;;27.80;35.54
14790;BME280;7486;51.010;10.366;2022-08-04T08:19:19;98082.63;;;28.08;36.99
14790;BME280;7486;51.010;10.366;2022-08-04T08:21:47;98092.84;;;28.37;34.95
14790;BME280;7486;51.010;10.366;2022-08-04T08:24:31;98029.38;;;27.82;37.33
14790;BME280;7486;51.010;10.366;2022-08-04T08:27:00;98092.75;;;28.17;35.40
14790;BME280;7486;51.010;10.366;2022-08-04T08:29:28;98111.28;;;28.78;35.81
14790;BME280;7486;51.010;10.366;2022-08-04T08:31:56;98078.25;;;29.09;33.66
14790;BME280;7486;51.010;10.366;2022-08-04T08:34:31;98052.34;;;29.24;33.82
14790;BME280;7486;51.010;10.366;2022-08-04T08:37:03;98099.44;;;29.12;34.74
14790;BME280;7486;51.010;10.366;2022-08-04T08:39:55;97960.50;;;28.66;34.12
14790;BME280;7486;51.010;10.366;2022-08-04T08:59:21;98098.88;;;31.16;29.58
14790;BME280;7486;51.010;10.366;2022-08-04T09:07:52;98086.75;;;31.69;28.46
14790;BME280;7486;51.010;10.366;2022-08-04T09:10:41;98093.41;;;31.68;28.64
14790;BME280;7486;51.010;10.366;2022-08-04T09:13:22;98006.69;;;31.32;29.03
14790;BME280;7486;51.010;10.366;2022-08-04T09:16:11;98091.72;;;31.91;27.71
14790;BME280;7486;51.010;10.366;2022-08-04T09:19:09;98085.06;;;32.20;26.37
14790;BME280;7486;51.010;10.366;2022-08-04T09:22:15;98078.19;;;31.98;28.65
14790;BME280;7486;51.010;10.366;2022-08-04T09:27:53;98080.66;;;32.15;28.14
14790;BME280;7486;51.010;10.366;2022-08-04T09:31:14;98080.75;;;32.34;26.04
14790;BME280;7486;51.010;10.366;2022-08-04T09:33:48;98027.81;;;31.87;26.29
14790;BME280;7486;51.010;10.366;2022-08-04T09:36:40;98070.13;;;32.01;26.94
14790;BME280;7486;51.010;10.366;2022-08-04T09:39:32;98054.66;;;32.25;27.60
14790;BME280;7486;51.010;10.366;2022-08-04T09:45:02;98084.56;;;32.45;26.20
14790;BME280;7486;51.010;10.366;2022-08-04T09:50:39;98074.59;;;32.53;27.42
14790;BME280;7486;51.010;10.366;2022-08-04T09:53:20;98062.03;;;32.52;26.93
14790;BME280;7486;51.010;10.366;2022-08-04T09:56:09;98066.34;;;32.69;26.17
14790;BME280;7486;51.010;10.366;2022-08-04T10:01:48;97952.84;;;32.07;27.24
14790;BME280;7486;51.010;10.366;2022-08-04T10:04:55;98019.56;;;32.62;26.99
14790;BME280;7486;51.010;10.366;2022-08-04T10:10:21;98060.94;;;33.03;25.08
14790;BME280;7486;51.010;10.366;2022-08-04T10:13:35;98072.34;;;32.90;26.58
14790;BME280;7486;51.010;10.366;2022-08-04T10:16:39;98040.50;;;33.20;24.82
14790;BME280;7486;51.010;10.366;2022-08-04T10:19:25;98060.03;;;33.34;25.25
14790;BME280;7486;51.010;10.366;2022-08-04T10:22:27;98058.91;;;33.54;24.98
14790;BME280;7486;51.010;10.366;2022-08-04T10:25:32;98047.44;;;33.49;23.45
14790;BME280;7486;51.010;10.366;2022-08-04T10:28:47;98053.06;;;33.56;23.47
14790;BME280;7486;51.010;10.366;2022-08-04T10:31:19;97829.03;;;32.01;24.44
14790;BME280;7486;51.010;10.366;2022-08-04T10:33:51;98014.25;;;33.38;24.25
14790;BME280;7486;51.010;10.366;2022-08-04T10:36:22;98043.97;;;33.90;23.79
14790;BME280;7486;51.010;10.366;2022-08-04T10:38:58;97523.91;;;30.63;23.78
14790;BME280;7486;51.010;10.366;2022-08-04T10:41:53;98047.69;;;34.01;23.73
14790;BME280;7486;51.010;10.366;2022-08-04T10:47:49;97998.47;;;33.74;22.30
14790;BME280;7486;51.010;10.366;2022-08-04T10:50:20;97990.69;;;33.56;23.58
14790;BME280;7486;51.010;10.366;2022-08-04T10:52:58;98038.69;;;34.04;23.34
14790;BME280;7486;51.010;10.366;2022-08-04T10:55:34;98039.28;;;34.36;22.90
14790;BME280;7486;51.010;10.366;2022-08-04T10:58:26;98006.56;;;34.28;24.01
14790;BME280;7486;51.010;10.366;2022-08-04T11:01:22;97930.31;;;33.60;23.33
14790;BME280;7486;51.010;10.366;2022-08-04T11:04:20;98004.69;;;33.90;24.45
14790;BME280;7486;51.010;10.366;2022-08-04T11:06:52;97922.00;;;33.76;23.35
14790;BME280;7486;51.010;10.366;2022-08-04T11:09:21;97996.56;;;33.55;22.31
14790;BME280;7486;51.010;10.366;2022-08-04T11:11:53;97917.53;;;33.06;23.76
14790;BME280;7486;51.010;10.366;2022-08-04T11:14:35;97922.44;;;32.97;23.90
14790;BME280;7486;51.010;10.366;2022-08-04T11:17:07;98029.00;;;33.49;23.40
14790;BME280;7486;51.010;10.366;2022-08-04T11:20:02;98019.53;;;33.47;24.58
14790;BME280;7486;51.010;10.366;2022-08-04T11:25:34;97856.00;;;32.50;23.73
14790;BME280;7486;51.010;10.366;2022-08-04T11:28:14;97976.97;;;33.37;23.77
14790;BME280;7486;51.010;10.366;2022-08-04T11:30:57;98032.00;;;34.25;24.79
14790;BME280;7486;51.010;10.366;2022-08-04T11:36:29;98018.38;;;34.54;23.51
14790;BME280;7486;51.010;10.366;2022-08-04T11:39:12;98023.25;;;34.65;23.43
14790;BME280;7486;51.010;10.366;2022-08-04T11:42:04;98019.63;;;34.34;24.37
14790;BME280;7486;51.010;10.366;2022-08-04T11:47:28;98024.94;;;33.82;24.86
14790;BME280;7486;51.010;10.366;2022-08-04T11:50:04;98012.09;;;33.47;24.49
14790;BME280;7486;51.010;10.366;2022-08-04T11:52:33;97913.91;;;33.22;24.65
14790;BME280;7486;51.010;10.366;2022-08-04T11:55:06;98021.09;;;34.28;23.58
14790;BME280;7486;51.010;10.366;2022-08-04T11:57:55;98023.66;;;34.67;23.31
14790;BME280;7486;51.010;10.366;2022-08-04T12:00:40;98024.28;;;34.79;23.56
14790;BME280;7486;51.010;10.366;2022-08-04T12:09:08;98012.03;;;34.77;23.15
14790;BME280;7486;51.010;10.366;2022-08-04T12:17:01;98005.28;;;34.71;23.31
14790;BME280;7486;51.010;10.366;2022-08-04T12:19:34;97977.81;;;34.25;23.03
14790;BME280;7486;51.010;10.366;2022-08-04T12:22:28;97889.41;;;33.13;24.00
14790;BME280;7486;51.010;10.366;2022-08-04T12:25:08;98002.50;;;34.44;24.74
14790;BME280;7486;51.010;10.366;2022-08-04T12:27:45;98001.63;;;34.89;24.52
14790;BME280;7486;51.010;10.366;2022-08-04T12:30:15;98002.81;;;35.18;23.88
14790;BME280;7486;51.010;10.366;2022-08-04T12:33:14;98006.91;;;35.31;23.27
14790;BME280;7486;51.010;10.366;2022-08-04T12:35:54;98003.78;;;35.33;23.05
14790;BME280;7486;51.010;10.366;2022-08-04T12:38:43;97955.13;;;34.81;23.13
14790;BME280;7486;51.010;10.366;2022-08-04T12:41:14;97960.34;;;34.63;22.55
14790;BME280;7486;51.010;10.366;2022-08-04T12:43:45;97927.72;;;34.35;23.60
14790;BME280;7486;51.010;10.366;2022-08-04T12:46:22;97837.94;;;33.71;23.23
14790;BME280;7486;51.010;10.366;2022-08-04T12:48:50;97986.34;;;34.66;24.12
14790;BME280;7486;51.010;10.366;2022-08-04T12:51:18;97684.69;;;32.63;24.12
14790;BME280;7486;51.010;10.366;2022-08-04T12:54:06;97979.97;;;34.62;22.81
14790;BME280;7486;51.010;10.366;2022-08-04T12:56:34;97931.19;;;34.32;24.24
14790;BME280;7486;51.010;10.366;2022-08-04T12:59:07;97974.94;;;34.18;24.23
14790;BME280;7486;51.010;10.366;2022-08-04T13:01:39;97871.66;;;33.07;24.38
14790;BME280;7486;51.010;10.366;2022-08-04T13:04:31;97926.75;;;33.79;25.13
14790;BME280;7486;51.010;10.366;2022-08-04T13:07:18;97958.34;;;34.60;24.18
14790;BME280;7486;51.010;10.366;2022-08-04T13:09:46;97968.91;;;35.11;24.52
14790;BME280;7486;51.010;10.366;2022-08-04T13:12:15;97924.13;;;35.14;24.99
14790;BME280;7486;51.010;10.366;2022-08-04T13:14:43;97921.53;;;34.98;23.84
14790;BME280;7486;51.010;10.366;2022-08-04T13:17:13;97963.19;;;34.96;23.51
14790;BME280;7486;51.010;10.366;2022-08-04T13:19:46;97967.63;;;34.75;23.13
14790;BME280;7486;51.010;10.366;2022-08-04T13:22:27;97915.25;;;34.19;23.29
14790;BME280;7486;51.010;10.366;2022-08-04T13:24:56;97965.38;;;34.58;24.43
14790;BME280;7486;51.010;10.366;2022-08-04T13:27:45;97945.44;;;33.70;24.40
14790;BME280;7486;51.010;10.366;2022-08-04T13:30:17;97960.91;;;34.00;24.53
14790;BME280;7486;51.010;10.366;2022-08-04T13:33:01;97894.06;;;33.93;23.99
14790;BME280;7486;51.010;10.366;2022-08-04T13:35:29;97897.88;;;34.11;24.27
14790;BME280;7486;51.010;10.366;2022-08-04T13:38:16;97845.94;;;33.57;24.61
14790;BME280;7486;51.010;10.366;2022-08-04T13:40:46;97959.88;;;34.31;24.75
14790;BME280;7486;51.010;10.366;2022-08-04T13:43:27;97843.31;;;33.41;24.53
14790;BME280;7486;51.010;10.366;2022-08-04T13:46:18;97883.28;;;34.07;24.30
14790;BME280;7486;51.010;10.366;2022-08-04T13:48:56;97913.88;;;34.54;24.14
14790;BME280;7486;51.010;10.366;2022-08-04T13:51:53;97950.31;;;34.74;23.33
14790;BME280;7486;51.010;10.366;2022-08-04T13:54:44;97919.69;;;34.76;25.01
14790;BME280;7486;51.010;10.366;2022-08-04T13:57:22;97851.00;;;34.57;23.27
14790;BME280;7486;51.010;10.366;2022-08-04T13:59:58;97894.66;;;34.88;24.21
14790;BME280;7486;51.010;10.366;2022-08-04T14:02:43;97934.75;;;35.15;21.84
14790;BME280;7486;51.010;10.366;2022-08-04T14:05:21;97868.16;;;34.46;23.97
14790;BME280;7486;51.010;10.366;2022-08-04T14:08:03;97930.31;;;35.07;23.65
14790;BME280;7486;51.010;10.366;2022-08-04T14:10:31;97902.69;;;34.70;24.98
14790;BME280;7486;51.010;10.366;2022-08-04T14:12:59;97422.25;;;31.50;24.26
14790;BME280;7486;51.010;10.366;2022-08-04T14:15:39;97929.28;;;34.89;23.63
14790;BME280;7486;51.010;10.366;2022-08-04T14:18:28;97795.47;;;33.65;23.49
14790;BME280;7486;51.010;10.366;2022-08-04T14:21:12;97928.63;;;34.20;24.88
14790;BME280;7486;51.010;10.366;2022-08-04T14:23:55;97925.81;;;34.39;25.51
14790;BME280;7486;51.010;10.366;2022-08-04T14:26:27;97888.63;;;34.23;23.93
14790;BME280;7486;51.010;10.366;2022-08-04T14:29:09;97908.66;;;34.49;25.20
14790;BME280;7486;51.010;10.366;2022-08-04T14:32:05;97879.06;;;34.13;24.71
14790;BME280;7486;51.010;10.366;2022-08-04T14:34:42;97900.22;;;34.35;24.26
14790;BME280;7486;51.010;10.366;2022-08-04T14:37:15;97892.06;;;34.16;24.55
14790;BME280;7486;51.010;10.366;2022-08-04T14:39:48;97861.38;;;33.65;24.98
14790;BME280;7486;51.010;10.366;2022-08-04T14:42:44;97739.94;;;32.84;24.96
14790;BME280;7486;51.010;10.366;2022-08-04T14:45:32;97891.94;;;33.64;24.62
14790;BME280;7486;51.010;10.366;2022-08-04T14:48:00;97828.84;;;33.44;24.48
14790;BME280;7486;51.010;10.366;2022-08-04T14:50:39;97890.91;;;33.72;24.81
14790;BME280;7486;51.010;10.366;2022-08-04T14:53:10;97887.69;;;33.66;24.36
14790;BME280;7486;51.010;10.366;2022-08-04T14:55:41;97892.53;;;34.22;24.20
14790;BME280;7486;51.010;10.366;2022-08-04T14:58:26;97893.94;;;33.86;24.38
14790;BME280;7486;51.010;10.366;2022-08-04T15:01:04;97884.19;;;34.15;25.52
14790;BME280;7486;51.010;10.366;2022-08-04T15:03:43;97866.56;;;34.42;24.46
14790;BME280;7486;51.010;10.366;2022-08-04T15:06:17;97829.06;;;34.04;24.17
14790;BME280;7486;51.010;10.366;2022-08-04T15:08:49;97887.09;;;34.25;23.84
14790;BME280;7486;51.010;10.366;2022-08-04T15:11:20;97843.94;;;33.77;25.27
14790;BME280;7486;51.010;10.366;2022-08-04T15:13:49;97667.91;;;32.68;25.30
14790;BME280;7486;51.010;10.366;2022-08-04T15:16:16;97817.59;;;33.76;25.51
14790;BME280;7486;51.010;10.366;2022-08-04T15:18:43;97561.06;;;32.07;25.38
14790;BME280;7486;51.010;10.366;2022-08-04T15:21:15;97785.69;;;33.68;25.22
14790;BME280;7486;51.010;10.366;2022-08-04T15:23:42;97860.56;;;34.10;25.20
14790;BME280;7486;51.010;10.366;2022-08-04T15:26:16;97874.03;;;34.19;25.15
14790;BME280;7486;51.010;10.366;2022-08-04T15:28:51;97818.91;;;33.59;24.80
14790;BME280;7486;51.010;10.366;2022-08-04T15:31:21;97879.69;;;34.03;25.26
14790;BME280;7486;51.010;10.366;2022-08-04T15:34:09;97826.91;;;33.90;25.12
14790;BME280;7486;51.010;10.366;2022-08-04T15:36:43;97885.06;;;34.22;24.46
14790;BME280;7486;51.010;10.366;2022-08-04T15:39:47;97872.19;;;34.00;24.19
14790;BME280;7486;51.010;10.366;2022-08-04T15:42:28;97761.91;;;33.30;25.49
14790;BME280;7486;51.010;10.366;2022-08-04T15:45:29;97803.28;;;33.40;24.97
14790;BME280;7486;51.010;10.366;2022-08-04T15:53:25;97810.84;;;34.22;25.68
14790;BME280;7486;51.010;10.366;2022-08-04T15:56:47;97832.94;;;34.26;25.80
14790;BME280;7486;51.010;10.366;2022-08-04T16:08:10;97836.81;;;34.81;23.56
14790;BME280;7486;51.010;10.366;2022-08-04T16:10:42;97823.31;;;35.06;24.54
14790;BME280;7486;51.010;10.366;2022-08-04T16:13:14;97768.53;;;34.60;24.42
14790;BME280;7486;51.010;10.366;2022-08-04T16:15:48;97623.47;;;33.53;23.44
14790;BME280;7486;51.010;10.366;2022-08-04T16:18:38;97829.34;;;34.81;23.14
14790;BME280;7486;51.010;10.366;2022-08-04T16:21:29;97824.22;;;34.50;22.09
14790;BME280;7486;51.010;10.366;2022-08-04T16:27:10;97772.75;;;33.68;25.59
14790;BME280;7486;51.010;10.366;2022-08-04T16:29:40;97684.81;;;33.16;25.29
14790;BME280;7486;51.010;10.366;2022-08-04T16:32:21;97819.53;;;34.24;23.99
14790;BME280;7486;51.010;10.366;2022-08-04T16:34:56;97822.72;;;34.00;23.87
14790;BME280;7486;51.010;10.366;2022-08-04T16:37:34;97773.34;;;34.07;24.94
14790;BME280;7486;51.010;10.366;2022-08-04T16:40:33;97815.97;;;34.80;25.35
14790;BME280;7486;51.010;10.366;2022-08-04T16:43:08;97820.91;;;35.00;24.85
14790;BME280;7486;51.010;10.366;2022-08-04T16:45:46;97744.16;;;34.55;25.23
14790;BME280;7486;51.010;10.366;2022-08-04T16:48:16;97678.13;;;34.22;25.06
14790;BME280;7486;51.010;10.366;2022-08-04T16:53:33;97799.16;;;35.25;24.51
14790;BME280;7486;51.010;10.366;2022-08-04T16:56:28;97820.06;;;35.30;24.04
14790;BME280;7486;51.010;10.366;2022-08-04T16:59:05;97820.09;;;35.33;23.90
14790;BME280;7486;51.010;10.366;2022-08-04T17:01:31;97753.28;;;34.99;24.18
14790;BME280;7486;51.010;10.366;2022-08-04T17:04:02;97694.72;;;34.62;24.34
14790;BME280;7486;51.010;10.366;2022-08-04T17:06:39;97501.72;;;33.39;24.66
14790;BME280;7486;51.010;10.366;2022-08-04T17:09:17;97797.53;;;35.17;23.00
14790;BME280;7486;51.010;10.366;2022-08-04T17:11:46;97526.03;;;33.40;24.46
14790;BME280;7486;51.010;10.366;2022-08-04T17:14:20;97674.75;;;34.32;24.66
14790;BME280;7486;51.010;10.366;2022-08-04T17:16:52;97596.72;;;33.77;24.71
14790;BME280;7486;51.010;10.366;2022-08-04T17:19:21;97561.91;;;33.54;24.73
14790;BME280;7486;51.010;10.366;2022-08-04T17:22:07;97739.59;;;34.70;25.27
14790;BME280;7486;51.010;10.366;2022-08-04T17:24:38;97807.34;;;35.18;25.44
14790;BME280;7486;51.010;10.366;2022-08-04T17:27:05;97803.03;;;35.17;25.46
14790;BME280;7486;51.010;10.366;2022-08-04T17:29:52;97737.50;;;34.60;25.66